Time;durP1;ratioP1;P1;durP2;ratioP2;P2;SDS_P1;SDS_P2;PMS_P1;PMS_P2;Temp;Humidity;BMP_temperature;BMP_pressure;BME280_temperature;BME280_humidity;BME280_pressure;Samples;Min_cycle;Max_cycle;Signal;HPM_P1;HPM_P2
2021/06/19 00:00:15;;;;;;;8.23;4.18;;;24.30;99.90;;;25.75;58.20;100244.09;6135881;23;20023;-87
2021/06/19 00:02:42;;;;;;;11.68;4.28;;;24.20;99.90;;;25.68;58.53;100237.41;6161277;23;20385;-87
2021/06/19 00:05:10;;;;;;;9.30;4.43;;;24.20;99.90;;;25.58;59.03;100247.22;6135226;23;20013;-89
2021/06/19 00:07:40;;;;;;;9.32;4.15;;;24.10;99.90;;;25.51;59.31;100249.53;6163178;23;20340;-88
2021/06/19 00:10:13;;;;;;;9.10;3.67;;;24.00;99.90;;;25.47;59.57;100263.16;6161406;23;20013;-86
2021/06/19 00:12:43;;;;;;;7.78;4.07;;;24.00;99.90;;;25.46;59.88;100258.72;6135864;23;20005;-88
2021/06/19 00:15:15;;;;;;;9.85;4.40;;;24.00;99.90;;;25.49;59.98;100269.22;6136714;23;20006;-88
2021/06/19 00:17:43;;;;;;;11.65;4.30;;;24.00;99.90;;;25.43;60.02;100274.72;6138307;23;20083;-90
2021/06/19 00:20:24;;;;;;;8.23;4.63;;;23.90;99.90;;;25.34;60.55;100268.97;6162998;23;20432;-89
2021/06/19 00:22:51;;;;;;;10.48;4.07;;;23.90;99.90;;;25.25;60.74;100268.91;6162358;23;20065;-88
2021/06/19 00:25:21;;;;;;;6.93;4.03;;;23.80;99.90;;;25.14;61.23;100260.75;6164168;23;20010;-89
2021/06/19 00:27:48;;;;;;;10.73;4.63;;;23.70;99.90;;;25.08;61.72;100281.81;6138127;23;20005;-89
2021/06/19 00:30:16;;;;;;;9.30;4.38;;;23.60;99.90;;;24.99;61.82;100276.84;6138102;23;20374;-90
2021/06/19 00:32:44;;;;;;;11.55;4.50;;;23.60;99.90;;;24.93;62.32;100269.34;6138944;23;20002;-88
2021/06/19 00:35:11;;;;;;;10.35;4.80;;;23.40;99.90;;;24.85;62.38;100268.03;6163578;23;20006;-89
2021/06/19 00:37:37;;;;;;;11.65;4.78;;;23.40;99.90;;;24.71;62.91;100263.63;6139570;23;20009;-90
2021/06/19 00:40:11;;;;;;;9.25;4.65;;;23.30;99.90;;;24.61;63.57;100276.22;6164081;23;20017;-90
2021/06/19 00:42:39;;;;;;;9.82;4.55;;;23.20;99.90;;;24.52;64.27;100268.38;6167173;23;20009;-89
2021/06/19 00:45:07;;;;;;;9.95;4.35;;;23.10;99.90;;;24.43;64.34;100268.31;6167001;23;20068;-89
2021/06/19 00:47:41;;;;;;;8.48;4.47;;;23.00;99.90;;;24.33;65.04;100269.47;6145030;23;20055;-89
2021/06/19 00:50:09;;;;;;;7.50;4.05;;;22.90;99.90;;;24.26;65.08;100268.91;6178396;23;20017;-86
2021/06/19 00:52:35;;;;;;;9.70;4.28;;;22.80;99.90;;;24.24;65.25;100268.59;6161115;23;20065;-88
2021/06/19 00:55:01;;;;;;;6.80;3.78;;;22.80;99.90;;;24.24;64.94;100277.16;6136563;23;20013;-88
2021/06/19 00:57:27;;;;;;;8.75;3.65;;;22.80;99.90;;;24.24;65.07;100275.06;6161009;23;20016;-88
2021/06/19 00:59:58;;;;;;;6.05;3.47;;;22.80;99.90;;;24.22;64.77;100263.34;6136746;23;20082;-86
2021/06/19 01:02:25;;;;;;;4.20;3.30;;;22.80;99.90;;;24.32;64.15;100276.44;6163850;23;20005;-86
2021/06/19 01:04:53;;;;;;;6.97;4.15;;;22.80;99.90;;;24.32;64.04;100270.72;6173006;23;19998;-88
2021/06/19 01:07:19;;;;;;;7.03;2.90;;;22.80;99.90;;;24.29;63.97;100259.44;6169239;23;20006;-88
2021/06/19 01:09:45;;;;;;;10.88;3.40;;;22.90;99.90;;;24.24;63.85;100260.03;6158677;23;20041;-89
2021/06/19 01:12:11;;;;;;;3.78;2.80;;;22.90;99.90;;;24.29;63.92;100260.25;6159507;23;20213;-87
2021/06/19 01:14:37;;;;;;;5.18;2.97;;;22.90;99.90;;;24.31;63.39;100263.41;6160827;23;20399;-89
2021/06/19 01:17:03;;;;;;;5.32;2.78;;;22.90;99.90;;;24.33;63.32;100266.63;6138012;23;20016;-89
2021/06/19 01:19:29;;;;;;;6.00;3.10;;;22.90;99.90;;;24.28;63.85;100274.94;6137305;23;20013;-88
2021/06/19 01:21:56;;;;;;;7.03;3.13;;;22.90;99.90;;;24.23;63.93;100276.34;6161698;23;20013;-88
2021/06/19 01:24:23;;;;;;;5.50;2.95;;;22.80;99.90;;;24.16;64.60;100284.34;6162780;23;20495;-89
2021/06/19 01:26:51;;;;;;;7.10;3.20;;;22.70;99.90;;;24.07;65.10;100290.75;6137664;23;20021;-87
2021/06/19 01:29:19;;;;;;;5.85;3.10;;;22.70;99.90;;;23.98;65.04;100282.88;6163239;23;20444;-88
2021/06/19 01:31:45;;;;;;;8.15;3.13;;;22.60;99.90;;;23.90;65.09;100283.56;6163695;23;20028;-88
2021/06/19 01:34:11;;;;;;;7.45;3.35;;;22.50;99.90;;;23.80;65.19;100270.44;6139007;23;20009;-88
2021/06/19 01:36:37;;;;;;;6.90;3.03;;;22.50;99.90;;;23.88;64.78;100281.19;6138295;23;20036;-89
2021/06/19 01:39:04;;;;;;;8.43;3.35;;;22.50;99.90;;;23.87;64.76;100278.78;6138324;23;20575;-88
2021/06/19 01:41:32;;;;;;;7.10;2.47;;;22.40;99.90;;;23.82;64.98;100291.56;6138152;23;20009;-90
2021/06/19 01:44:11;;;;;;;3.90;2.30;;;22.40;99.90;;;23.73;65.23;100282.88;6136142;23;20020;-89
2021/06/19 01:46:42;;;;;;;6.88;2.90;;;22.30;99.90;;;23.66;65.26;100279.50;6134097;23;20112;-88
2021/06/19 01:49:09;;;;;;;4.38;2.50;;;22.20;99.90;;;23.54;65.48;100278.22;6159414;23;20102;-89
2021/06/19 01:51:35;;;;;;;6.22;2.22;;;22.20;99.90;;;23.50;65.99;100286.09;6136352;23;20009;-90
2021/06/19 01:54:03;;;;;;;4.72;2.00;;;22.10;99.90;;;23.44;65.89;100282.19;6160721;23;20060;-90
2021/06/19 01:56:28;;;;;;;3.28;2.55;;;22.10;99.90;;;23.46;65.73;100280.50;6136063;23;20432;-90
2021/06/19 01:58:55;;;;;;;5.10;2.50;;;22.10;99.90;;;23.39;66.03;100288.44;6136247;23;20037;-92
2021/06/19 02:01:21;;;;;;;4.50;2.53;;;22.00;99.90;;;23.31;66.31;100287.84;6163009;23;20033;-90
2021/06/19 02:03:49;;;;;;;5.47;2.30;;;21.90;99.90;;;23.29;66.40;100290.38;6162256;23;20056;-90
2021/06/19 02:06:15;;;;;;;5.72;2.60;;;21.80;99.90;;;23.18;66.59;100291.97;6137504;23;20423;-91
2021/06/19 02:09:06;;;;;;;4.72;2.55;;;21.70;99.90;;;23.06;67.00;100287.81;6137624;23;20112;-92
2021/06/19 02:11:35;;;;;;;4.30;2.33;;;21.70;99.90;;;23.02;67.42;100292.84;6164202;23;20298;-90
2021/06/19 02:14:04;;;;;;;4.35;2.50;;;21.60;99.90;;;23.00;67.59;100296.13;6162194;23;20009;-90
2021/06/19 02:16:33;;;;;;;3.30;2.13;;;21.60;99.90;;;23.05;67.64;100297.63;6158476;23;20083;-89
2021/06/19 02:18:59;;;;;;;3.70;2.25;;;21.70;99.90;;;23.06;67.53;100304.91;6159719;23;20427;-88
2021/06/19 02:21:25;;;;;;;2.85;2.00;;;21.70;99.90;;;23.04;67.76;100308.22;6135499;23;20032;-88
2021/06/19 02:23:51;;;;;;;6.70;2.60;;;21.60;99.90;;;23.00;67.70;100298.16;6135107;23;20016;-87
2021/06/19 02:26:17;;;;;;;3.38;2.25;;;21.60;99.90;;;22.94;68.20;100306.47;6158196;23;20010;-88
2021/06/19 02:28:43;;;;;;;3.70;1.90;;;21.60;99.90;;;22.93;68.64;100307.72;6158847;23;20041;-89
2021/06/19 02:31:09;;;;;;;6.43;2.45;;;21.60;99.90;;;22.90;68.50;100307.81;6135042;23;20006;-88
2021/06/19 02:33:36;;;;;;;3.88;2.38;;;21.50;99.90;;;22.83;68.67;100305.19;6135878;23;20010;-90
2021/06/19 02:36:03;;;;;;;6.35;2.65;;;21.50;99.90;;;22.75;69.27;100315.16;6160200;23;20013;-88
2021/06/19 02:38:29;;;;;;;3.40;2.65;;;21.50;99.90;;;22.72;69.45;100313.22;6135318;23;20009;-88
2021/06/19 02:40:55;;;;;;;3.53;2.55;;;21.40;99.90;;;22.70;69.75;100321.41;6161337;23;20033;-88
2021/06/19 02:43:21;;;;;;;7.85;2.50;;;21.30;99.90;;;22.64;69.87;100323.97;6137528;23;20451;-87
2021/06/19 02:45:48;;;;;;;2.95;2.22;;;21.30;99.90;;;22.70;70.02;100321.41;6162968;23;20001;-90
2021/06/19 02:48:14;;;;;;;4.25;2.38;;;21.40;99.90;;;22.67;70.19;100325.16;6137920;23;20005;-88
2021/06/19 02:50:44;;;;;;;4.25;2.30;;;21.40;99.90;;;22.68;70.02;100321.84;6168333;23;20010;-87
2021/06/19 02:53:12;;;;;;;2.85;2.40;;;21.40;99.90;;;22.76;70.04;100319.63;6169523;23;20081;-87
2021/06/19 02:55:43;;;;;;;6.75;2.80;;;21.40;99.90;;;22.70;69.96;100330.75;6170007;23;20067;-87
2021/06/19 02:58:15;;;;;;;5.60;2.92;;;21.40;99.90;;;22.75;69.86;100323.72;6144602;23;20005;-90
2021/06/19 03:00:41;;;;;;;5.03;2.97;;;21.30;99.90;;;22.61;70.65;100327.72;6139885;23;20009;-89
2021/06/19 03:03:09;;;;;;;7.75;3.03;;;21.30;99.90;;;22.60;70.99;100328.97;6143290;23;20067;-90
2021/06/19 03:05:38;;;;;;;6.78;2.85;;;21.30;99.90;;;22.56;70.96;100331.91;6168982;23;20009;-87
2021/06/19 03:08:06;;;;;;;5.97;2.90;;;21.30;99.90;;;22.53;70.94;100329.16;6142829;23;20017;-89
2021/06/19 03:10:40;;;;;;;7.78;3.05;;;21.20;99.90;;;22.54;71.04;100325.03;6171860;23;20024;-90
2021/06/19 03:13:07;;;;;;;6.70;2.35;;;21.30;99.90;;;22.56;70.72;100326.22;6164919;23;20010;-90
2021/06/19 03:15:33;;;;;;;5.95;2.88;;;21.20;99.90;;;22.54;70.63;100331.53;6139979;23;20182;-88
2021/06/19 03:17:59;;;;;;;4.30;2.40;;;21.20;99.90;;;22.54;70.30;100328.69;6138109;23;20006;-88
2021/06/19 03:20:26;;;;;;;7.43;2.08;;;21.20;99.90;;;22.58;70.09;100332.25;6139490;23;20017;-87
2021/06/19 03:23:01;;;;;;;3.15;1.98;;;21.20;99.90;;;22.54;70.10;100333.59;6139020;23;20021;-89
2021/06/19 03:25:35;;;;;;;4.97;2.30;;;21.20;99.90;;;22.57;70.06;100332.72;6138783;23;20025;-88
2021/06/19 03:28:05;;;;;;;3.08;1.92;;;21.20;99.90;;;22.58;69.95;100334.28;6137312;23;20211;-86
2021/06/19 03:30:38;;;;;;;4.63;2.17;;;21.20;99.90;;;22.54;70.10;100342.94;6162856;23;20056;-85
2021/06/19 03:33:05;;;;;;;4.05;1.90;;;21.10;99.90;;;22.50;70.22;100336.56;6172929;23;20002;-89
2021/06/19 03:35:33;;;;;;;4.05;1.75;;;21.10;99.90;;;22.48;70.23;100344.72;6152035;23;20440;-90
2021/06/19 03:37:59;;;;;;;4.20;1.70;;;21.10;99.90;;;22.42;70.60;100340.00;6151048;23;20009;-88
2021/06/19 03:40:28;;;;;;;2.78;1.90;;;21.00;99.90;;;22.33;70.85;100340.66;6172745;23;20016;-91
2021/06/19 03:42:55;;;;;;;3.35;1.55;;;21.00;99.90;;;22.29;71.16;100334.25;6137278;23;20006;-91
2021/06/19 03:45:27;;;;;;;4.50;2.08;;;20.90;99.90;;;22.23;71.41;100333.19;6162838;23;20016;-89
2021/06/19 03:47:54;;;;;;;6.00;2.05;;;20.80;99.90;;;22.24;71.50;100342.53;6137380;23;20013;-88
2021/06/19 03:50:27;;;;;;;3.55;1.85;;;20.80;99.90;;;22.25;71.63;100344.91;6137585;23;20010;-90
2021/06/19 03:52:55;;;;;;;4.00;2.08;;;20.80;99.90;;;22.22;71.55;100353.56;6161571;23;20048;-90
2021/06/19 03:55:23;;;;;;;4.63;1.90;;;20.80;99.90;;;22.23;71.73;100352.28;6161768;23;20052;-90
2021/06/19 03:57:49;;;;;;;3.17;2.28;;;20.90;99.90;;;22.23;71.50;100350.25;6162025;23;20120;-90
2021/06/19 04:00:19;;;;;;;3.92;2.20;;;21.00;99.90;;;22.32;71.24;100356.13;6159280;23;20009;-91
2021/06/19 04:02:45;;;;;;;4.95;2.00;;;20.90;99.90;;;22.33;71.23;100359.75;6160976;23;20032;-90
2021/06/19 04:05:14;;;;;;;4.18;1.90;;;21.00;99.90;;;22.32;71.46;100361.81;6134804;23;20017;-89
2021/06/19 04:07:41;;;;;;;4.72;1.92;;;21.00;99.90;;;22.31;70.89;100362.25;6160012;23;20012;-89
2021/06/19 04:10:09;;;;;;;3.83;1.85;;;21.00;99.90;;;22.36;70.58;100370.25;6135344;23;20068;-90
2021/06/19 04:12:36;;;;;;;5.03;1.85;;;21.00;99.90;;;22.49;69.97;100377.63;6137270;23;20065;-89
2021/06/19 04:15:04;;;;;;;2.03;1.30;;;21.10;99.90;;;22.47;69.68;100376.47;6161427;23;20385;-89
2021/06/19 04:17:30;;;;;;;3.55;1.27;;;21.10;99.90;;;22.41;69.62;100384.75;6164953;23;20010;-88
2021/06/19 04:19:57;;;;;;;2.90;1.40;;;21.20;99.90;;;22.57;69.41;100390.41;6166322;23;20270;-91
2021/06/19 04:22:23;;;;;;;4.60;1.35;;;21.20;99.90;;;22.59;69.26;100393.63;6139884;23;20015;-90
2021/06/19 04:24:49;;;;;;;2.13;1.20;;;21.20;99.90;;;22.64;68.98;100400.00;6162562;23;20005;-89
2021/06/19 04:27:20;;;;;;;4.38;1.55;;;21.20;99.90;;;22.64;68.86;100403.66;6137875;23;20106;-89
2021/06/19 04:29:49;;;;;;;1.48;1.13;;;21.20;99.90;;;22.68;68.24;100406.44;6162174;23;20006;-91
2021/06/19 04:32:18;;;;;;;5.75;1.20;;;21.30;99.90;;;22.75;67.54;100403.44;6136262;23;20006;-91
2021/06/19 04:34:44;;;;;;;4.20;1.25;;;21.40;99.90;;;22.85;66.79;100397.44;6148450;23;20002;-88
2021/06/19 04:37:15;;;;;;;2.15;1.00;;;21.50;99.90;;;23.14;66.43;100403.16;6143142;23;20052;-90
2021/06/19 04:39:55;;;;;;;4.55;1.15;;;21.70;99.90;;;23.25;65.74;100406.50;6160622;23;20049;-90
2021/06/19 04:42:24;;;;;;;2.67;1.25;;;21.80;99.90;;;23.39;65.12;100406.09;6166245;23;20005;-90
2021/06/19 04:45:02;;;;;;;2.47;1.00;;;21.90;99.90;;;23.34;65.48;100418.03;6139842;23;20033;-89
2021/06/19 04:47:35;;;;;;;3.97;1.10;;;22.00;99.90;;;23.58;64.55;100412.91;6141593;23;20021;-89
2021/06/19 04:50:08;;;;;;;2.40;1.05;;;22.10;99.90;;;23.63;64.66;100409.50;6173636;23;20021;-86
2021/06/19 04:52:42;;;;;;;4.47;1.00;;;22.20;99.90;;;23.76;64.02;100403.81;6142655;23;20029;-87
2021/06/19 04:55:17;;;;;;;2.88;0.98;;;22.20;99.90;;;23.89;63.74;100399.69;6144928;23;20129;-87
2021/06/19 04:57:49;;;;;;;1.42;0.90;;;22.30;99.90;;;23.99;63.68;100412.84;6146552;23;20001;-90
2021/06/19 05:00:17;;;;;;;4.22;1.05;;;22.40;99.90;;;24.09;63.17;100413.75;6146826;23;20027;-88
2021/06/19 05:02:44;;;;;;;3.35;0.93;;;22.50;99.90;;;24.04;63.20;100406.56;6169435;23;20005;-89
2021/06/19 05:05:10;;;;;;;3.70;0.93;;;22.50;99.90;;;24.12;62.64;100405.09;6168817;23;20006;-90
2021/06/19 05:07:36;;;;;;;3.28;1.00;;;22.60;99.90;;;24.14;62.24;100408.28;6143238;23;20128;-88
2021/06/19 05:10:06;;;;;;;2.22;0.93;;;22.70;99.90;;;24.39;62.23;100401.78;6143197;23;20009;-88
2021/06/19 05:12:35;;;;;;;2.38;0.90;;;22.80;99.90;;;24.46;62.06;100406.47;6168744;23;20009;-88
2021/06/19 05:15:04;;;;;;;0.68;0.68;;;22.90;99.90;;;24.68;61.00;100404.47;6166136;23;20018;-88
2021/06/19 05:17:31;;;;;;;0.70;0.70;;;23.00;99.90;;;24.97;60.51;100407.97;6166252;23;20061;-89
2021/06/19 05:19:58;;;;;;;1.67;0.90;;;23.20;99.90;;;25.12;59.80;100413.94;6141069;23;20021;-89
2021/06/19 05:22:25;;;;;;;1.90;0.95;;;23.30;99.90;;;25.35;59.66;100416.38;6140392;23;20085;-85
2021/06/19 05:24:51;;;;;;;1.05;0.93;;;23.50;99.90;;;25.31;60.01;100412.03;6165942;23;20010;-88
2021/06/19 05:27:17;;;;;;;1.55;1.15;;;23.60;99.90;;;25.50;58.64;100417.44;6141303;23;20009;-88
2021/06/19 05:29:43;;;;;;;1.73;0.98;;;23.70;99.90;;;25.56;58.60;100431.94;6141518;23;20012;-88
2021/06/19 05:32:10;;;;;;;1.58;0.90;;;23.80;99.90;;;25.49;58.29;100432.19;6141895;23;20029;-88
2021/06/19 05:34:37;;;;;;;1.88;0.95;;;23.80;99.90;;;25.77;58.19;100438.91;6142217;23;20029;-88
2021/06/19 05:37:04;;;;;;;1.83;1.60;;;23.90;99.90;;;25.77;57.66;100436.06;6138987;23;20037;-90
2021/06/19 05:39:30;;;;;;;3.55;1.27;;;24.00;99.90;;;25.49;58.01;100443.63;6138227;23;20013;-90
2021/06/19 05:41:57;;;;;;;1.45;0.80;;;24.00;99.90;;;25.51;58.07;100441.94;6136049;23;20047;-89
2021/06/19 05:44:23;;;;;;;1.77;1.00;;;23.90;99.90;;;25.49;57.69;100450.19;6136418;23;20033;-87
2021/06/19 05:46:49;;;;;;;1.60;1.02;;;23.90;99.90;;;25.60;57.21;100438.31;6160516;23;20060;-89
2021/06/19 05:49:14;;;;;;;1.77;1.00;;;24.00;99.90;;;25.66;57.34;100442.19;6162759;23;20006;-89
2021/06/19 05:51:40;;;;;;;2.25;1.10;;;24.00;99.90;;;25.67;57.40;100438.88;6134921;23;20010;-88
2021/06/19 05:54:06;;;;;;;1.85;0.98;;;24.10;99.90;;;26.09;56.65;100447.03;6162253;23;20009;-91
2021/06/19 05:56:33;;;;;;;4.20;0.90;;;24.20;99.90;;;26.13;55.49;100451.38;6136220;23;20293;-90
2021/06/19 05:59:00;;;;;;;3.97;1.02;;;24.40;99.90;;;26.36;55.28;100455.78;6161668;23;20005;-90
2021/06/19 06:01:29;;;;;;;2.00;1.17;;;24.50;99.90;;;26.66;54.96;100454.13;6161650;23;20005;-90
2021/06/19 06:03:55;;;;;;;1.65;0.85;;;24.70;99.90;;;26.89;54.69;100456.44;6137730;23;20358;-90
2021/06/19 06:06:21;;;;;;;2.28;0.90;;;24.90;99.90;;;27.06;53.74;100462.69;6137657;23;20080;-88
2021/06/19 06:08:47;;;;;;;2.45;0.98;;;25.00;99.90;;;27.01;52.69;100446.09;6163436;23;20013;-90
2021/06/19 06:11:13;;;;;;;3.63;1.17;;;25.20;99.90;;;27.22;52.95;100457.44;6136885;23;20175;-86
2021/06/19 06:13:40;;;;;;;1.65;1.20;;;25.30;99.90;;;27.38;52.44;100452.66;6136176;23;20164;-88
2021/06/19 06:16:06;;;;;;;0.85;0.73;;;25.40;99.90;;;27.52;52.24;100455.69;6162929;23;20066;-87
2021/06/19 06:18:32;;;;;;;1.15;0.82;;;25.50;99.90;;;27.39;51.58;100455.03;6154751;23;20005;-86
2021/06/19 06:20:58;;;;;;;1.77;1.00;;;25.60;99.90;;;26.91;52.16;100453.09;6148365;23;20449;-91
2021/06/19 06:23:24;;;;;;;1.70;0.80;;;25.30;99.90;;;27.02;52.61;100441.97;6138260;23;20009;-90
2021/06/19 06:25:52;;;;;;;3.30;1.00;;;25.40;99.90;;;27.46;51.16;100448.22;6137802;23;20009;-87
2021/06/19 06:28:18;;;;;;;1.70;0.90;;;25.60;99.90;;;27.53;50.51;100462.22;6163253;23;20045;-89
2021/06/19 06:30:46;;;;;;;2.30;1.00;;;25.70;99.90;;;27.97;50.27;100459.75;6164330;23;20033;-89
2021/06/19 06:33:12;;;;;;;3.55;0.90;;;25.90;99.90;;;27.69;50.04;100464.78;6161666;23;20436;-89
2021/06/19 06:35:39;;;;;;;1.52;0.80;;;26.00;99.90;;;27.22;51.28;100468.13;6139457;23;20059;-89
2021/06/19 06:38:06;;;;;;;1.90;0.90;;;25.70;99.90;;;27.52;50.41;100478.66;6138644;23;20077;-90
2021/06/19 06:40:32;;;;;;;1.45;0.70;;;25.80;99.90;;;27.99;49.39;100481.00;6162201;23;20017;-90
2021/06/19 06:42:59;;;;;;;2.58;0.70;;;26.00;99.90;;;27.64;49.57;100482.63;6138460;23;20167;-90
2021/06/19 06:45:26;;;;;;;1.52;0.85;;;26.10;99.90;;;27.77;48.80;100486.13;6161739;23;20080;-89
2021/06/19 06:47:52;;;;;;;2.22;0.85;;;26.10;99.90;;;27.59;49.82;100481.19;6139511;23;20116;-93
2021/06/19 06:50:47;;;;;;;2.08;0.50;;;26.10;99.90;;;27.77;49.60;100489.78;6136745;23;20002;-89
2021/06/19 06:53:15;;;;;;;0.70;0.68;;;26.10;99.90;;;27.83;49.17;100483.41;6143863;23;20061;-92
2021/06/19 06:55:46;;;;;;;0.98;0.70;;;26.20;99.90;;;28.30;47.29;100492.25;6146520;23;20005;-91
2021/06/19 06:58:14;;;;;;;0.68;0.65;;;26.40;99.90;;;27.63;49.34;100501.94;6171356;23;20005;-89
2021/06/19 07:00:45;;;;;;;2.75;0.80;;;26.30;99.90;;;28.03;49.03;100498.81;6150734;23;20040;-92
2021/06/19 07:03:21;;;;;;;1.98;0.70;;;26.40;99.90;;;28.26;48.50;100500.22;6152793;23;20013;-87
2021/06/19 07:05:46;;;;;;;;;;;26.40;99.90;;;27.59;50.10;100495.53;6147072;23;20006;-89
2021/06/19 07:08:12;;;;;;;2.17;0.90;;;26.30;99.90;;;27.90;48.92;100500.31;6162330;23;19961;-91
2021/06/19 07:10:38;;;;;;;1.15;0.68;;;26.30;99.90;;;28.40;48.22;100498.75;6136126;23;20025;-88
2021/06/19 07:13:05;;;;;;;0.90;0.77;;;26.40;99.90;;;28.55;47.52;100491.00;6160686;23;20001;-88
2021/06/19 07:15:31;;;;;;;4.10;0.80;;;26.70;99.90;;;28.98;47.41;100495.44;6136327;23;20055;-89
2021/06/19 07:17:57;;;;;;;1.27;0.68;;;26.90;99.90;;;29.29;46.57;100495.91;6136222;23;20014;-89
2021/06/19 07:20:31;;;;;;;1.98;0.75;;;27.20;99.90;;;29.45;45.77;100500.41;6138570;23;20017;-87
2021/06/19 07:22:57;;;;;;;3.28;0.80;;;27.50;98.10;;;28.59;47.32;100503.94;6141617;23;20040;-86
2021/06/19 07:25:23;;;;;;;1.10;0.63;;;27.20;96.70;;;28.75;47.17;100500.69;6138536;23;20049;-86
2021/06/19 07:28:30;;;;;;;1.45;0.65;;;27.20;97.00;;;29.54;46.07;100491.72;6163321;23;20009;-90
2021/06/19 07:31:05;;;;;;;2.97;0.80;;;27.50;97.70;;;29.88;44.89;100498.94;6135332;23;20467;-86
2021/06/19 07:33:31;;;;;;;2.37;0.70;;;27.80;95.20;;;30.29;44.40;100495.75;6143414;23;20097;-88
2021/06/19 07:35:57;;;;;;;1.35;0.82;;;28.00;94.50;;;30.33;43.67;100495.56;6136243;23;20241;-89
2021/06/19 07:38:24;;;;;;;1.23;1.00;;;28.10;93.40;;;30.19;44.39;100499.22;6137302;23;20010;-88
2021/06/19 07:40:50;;;;;;;3.13;0.80;;;28.00;93.30;;;30.15;44.29;100487.13;6161900;23;20009;-88
2021/06/19 07:43:22;;;;;;;0.95;0.75;;;28.10;92.40;;;30.73;43.21;100494.91;6160083;23;20084;-89
2021/06/19 07:45:51;;;;;;;0.73;0.70;;;28.40;92.00;;;31.03;42.61;100496.44;6136495;23;20006;-90
2021/06/19 07:48:27;;;;;;;3.03;1.20;;;28.70;90.70;;;31.37;42.44;100494.75;6134330;23;20017;-87
2021/06/19 07:50:55;;;;;;;2.25;0.60;;;29.00;91.00;;;31.45;42.56;100483.59;6137607;23;20009;-88
2021/06/19 07:53:28;;;;;;;3.65;1.00;;;29.10;90.10;;;31.51;41.88;100476.63;6170996;23;20009;-88
2021/06/19 07:55:57;;;;;;;4.07;0.77;;;29.30;86.90;;;30.75;43.21;100478.72;6164473;23;20009;-87
2021/06/19 07:58:27;;;;;;;1.50;0.70;;;28.90;86.90;;;30.77;42.94;100489.72;6146360;23;20073;-88
2021/06/19 08:00:56;;;;;;;2.55;1.08;;;28.80;86.30;;;30.32;43.50;100494.75;6139681;23;20001;-87
2021/06/19 08:03:25;;;;;;;3.50;0.55;;;28.50;86.80;;;30.15;42.41;100493.66;6140719;23;19997;-88
2021/06/19 08:05:51;;;;;;;1.25;0.70;;;28.30;82.50;;;29.76;43.74;100492.91;6141979;23;20006;-89
2021/06/19 08:08:24;;;;;;;0.60;0.50;;;28.10;85.40;;;29.92;43.61;100499.53;6145009;23;20017;-89
2021/06/19 08:10:55;;;;;;;2.13;0.80;;;28.10;85.80;;;30.11;43.19;100490.22;6110372;23;20014;-88
2021/06/19 08:13:24;;;;;;;2.83;0.98;;;28.20;86.00;;;29.62;45.09;100493.72;6172416;23;20033;-89
2021/06/19 08:16:10;;;;;;;1.00;0.80;;;28.00;88.50;;;30.47;42.92;100485.34;6163605;23;20051;-88
2021/06/19 08:18:40;;;;;;;1.13;0.70;;;28.30;86.90;;;30.75;42.57;100486.56;6139910;23;20013;-89
2021/06/19 08:21:11;;;;;;;2.28;0.90;;;28.50;85.90;;;30.92;43.00;100489.69;6178881;23;20017;-88
2021/06/19 08:23:37;;;;;;;1.48;1.00;;;28.80;86.10;;;30.74;42.06;100484.97;6178738;23;20068;-89
2021/06/19 08:26:03;;;;;;;1.90;0.80;;;28.80;82.10;;;30.79;42.96;100481.38;6164534;23;20005;-86
2021/06/19 08:28:32;;;;;;;0.70;0.63;;;28.70;84.90;;;31.43;41.47;100483.31;6138029;23;20060;-87
2021/06/19 08:30:58;;;;;;;1.00;0.85;;;29.00;83.40;;;31.45;40.61;100477.81;6164544;23;20032;-89
2021/06/19 08:33:24;;;;;;;1.42;0.75;;;29.10;81.00;;;31.85;40.41;100475.66;6177466;23;20061;-88
2021/06/19 08:35:50;;;;;;;0.88;0.60;;;29.50;80.10;;;32.14;40.11;100473.88;6180679;23;20017;-88
2021/06/19 08:38:16;;;;;;;2.90;0.55;;;29.60;79.40;;;31.58;38.81;100475.38;6140560;23;20075;-89
2021/06/19 08:40:42;;;;;;;0.80;0.60;;;29.60;73.20;;;32.54;38.99;100467.91;6139450;23;20032;-90
2021/06/19 08:43:08;;;;;;;2.28;0.60;;;30.00;76.20;;;32.54;37.82;100462.13;6138521;23;20155;-89
2021/06/19 08:45:49;;;;;;;1.13;0.32;;;30.10;72.10;;;32.91;35.51;100455.53;6163134;23;20009;-90
2021/06/19 08:48:19;;;;;;;1.23;0.52;;;30.30;67.50;;;32.66;35.42;100469.59;6167876;23;20009;-89
2021/06/19 08:50:46;;;;;;;1.33;0.55;;;30.40;66.00;;;33.03;34.49;100466.66;6140289;23;20005;-87
2021/06/19 08:53:13;;;;;;;0.70;0.50;;;30.50;64.50;;;32.75;35.11;100463.59;6139133;23;20013;-89
2021/06/19 08:55:39;;;;;;;1.80;0.50;;;30.40;64.70;;;32.22;36.44;100463.44;6164908;23;20056;-88
2021/06/19 08:58:05;;;;;;;0.40;0.40;;;30.20;65.40;;;32.96;35.58;100458.47;6135946;23;20447;-88
2021/06/19 09:00:31;;;;;;;1.42;0.60;;;30.40;65.90;;;32.78;35.86;100458.91;6136540;23;20013;-87
2021/06/19 09:02:58;;;;;;;1.83;0.60;;;30.40;64.90;;;32.59;36.35;100452.69;6138575;23;20458;-90
2021/06/19 09:05:30;;;;;;;0.80;0.43;;;30.30;65.30;;;32.69;35.47;100450.41;6138002;23;20029;-87
2021/06/19 09:07:59;;;;;;;1.35;0.57;;;30.40;63.70;;;33.49;35.43;100448.19;6165794;23;20009;-88
2021/06/19 09:10:36;;;;;;;0.75;0.50;;;30.80;65.00;;;34.02;35.43;100461.75;6164533;23;20032;-90
2021/06/19 09:13:19;;;;;;;0.60;0.50;;;31.20;64.60;;;32.82;33.92;100460.22;6137427;23;20013;-88
2021/06/19 09:15:56;;;;;;;1.95;0.68;;;30.90;60.20;;;32.57;35.37;100458.22;6162973;23;20143;-88
2021/06/19 09:18:27;;;;;;;0.57;0.50;;;30.60;61.70;;;33.40;34.49;100447.09;6135860;23;20013;-86
2021/06/19 09:21:01;;;;;;;1.35;0.50;;;30.70;62.60;;;33.42;34.45;100452.38;6161338;23;20088;-86
2021/06/19 09:23:41;;;;;;;8.70;0.60;;;30.90;62.50;;;33.51;34.93;100443.47;6134637;23;20010;-89
2021/06/19 09:26:17;;;;;;;0.98;0.80;;;31.10;62.40;;;33.78;33.77;100442.75;6159804;23;20360;-88
2021/06/19 09:29:15;;;;;;;1.40;0.70;;;31.20;60.10;;;34.38;33.85;100447.03;6159100;23;20016;-86
2021/06/19 09:31:52;;;;;;;3.22;0.57;;;31.60;62.10;;;34.01;33.43;100442.75;6125628;23;20063;-88
2021/06/19 09:34:28;;;;;;;2.25;0.50;;;31.50;59.30;;;34.24;32.68;100435.69;6158920;23;20001;-86
2021/06/19 09:37:08;;;;;;;1.88;0.50;;;31.50;58.60;;;34.42;33.39;100447.53;6158440;23;20013;-87
2021/06/19 09:39:36;;;;;;;1.30;0.65;;;31.60;60.00;;;34.60;32.79;100445.41;6133532;23;20060;-86
2021/06/19 09:42:07;;;;;;;1.55;0.63;;;31.80;59.20;;;34.09;32.56;100444.63;6161175;23;20009;-87
2021/06/19 09:44:47;;;;;;;0.98;0.50;;;31.70;58.10;;;33.30;33.60;100442.06;6159591;23;20444;-87
2021/06/19 09:47:20;;;;;;;0.90;0.50;;;31.50;58.00;;;32.99;34.08;100453.75;6137890;23;20009;-91
2021/06/19 09:49:50;;;;;;;0.90;0.60;;;31.20;57.60;;;33.52;32.89;100439.25;6135957;23;20052;-86
2021/06/19 09:52:29;;;;;;;0.90;0.60;;;31.20;57.60;;;33.27;33.86;100435.22;6133915;23;20028;-89
2021/06/19 09:55:00;;;;;;;2.72;0.57;;;31.20;58.40;;;33.31;34.36;100435.75;6159398;23;20064;-87
2021/06/19 09:57:50;;;;;;;2.63;0.40;;;31.20;58.90;;;33.66;34.05;100432.47;6159607;23;20013;-88
2021/06/19 10:00:21;;;;;;;0.93;0.60;;;31.30;58.80;;;34.23;33.46;100434.91;6164006;23;20033;-87
2021/06/19 10:02:49;;;;;;;1.10;0.80;;;31.60;59.20;;;34.51;31.93;100417.50;6163010;23;20016;-89
2021/06/19 10:05:16;;;;;;;0.80;0.60;;;31.80;57.00;;;34.71;31.45;100413.53;6136872;23;20443;-87
2021/06/19 10:07:44;;;;;;;1.27;0.68;;;31.90;56.60;;;34.57;31.34;100403.75;6133725;23;20104;-87
2021/06/19 10:10:13;;;;;;;1.60;0.45;;;31.90;56.10;;;34.41;33.11;100401.69;6159817;23;20009;-85
2021/06/19 10:12:40;;;;;;;0.80;0.60;;;31.80;58.70;;;34.40;31.70;100388.50;6161143;23;20002;-88
2021/06/19 10:15:12;;;;;;;0.80;0.60;;;31.80;56.50;;;34.64;32.43;100390.84;6159083;23;20025;-87
2021/06/19 10:17:44;;;;;;;0.65;0.50;;;31.90;57.40;;;35.15;32.92;100392.28;6135281;23;20024;-86
2021/06/19 10:20:18;;;;;;;1.80;0.77;;;32.20;60.00;;;34.83;31.62;100394.75;6144190;23;20009;-86